Aviation Digital Data Service (ADDS)

Output produced by METARs form (1847 UTC 24 October 2014)
found at http://www.aviationweather.gov/adds/metars/
 
KALB 241730Z 2418/2518 03003KT P6SM -DZ SCT006 BKN015 OVC022 
     FM242000 34010KT P6SM SCT015 OVC035 
     TEMPO 2420/2423 BKN015 OVC030 
     FM242300 32008KT P6SM SCT035 BKN080 
     FM250300 31005KT P6SM SCT080 
     FM251400 25008KT P6SM SCT060 SCT200